RYR349 LEZL-LEPA
Flight info
| Callsign | RYR349 |
|---|---|
| Flight time | 1h 17m |
| Altitude | 36000 |
| Route | MAR DCT MGA DCT RIXUR DCT UNTOS DCT ROLAS DCT TOSGA DCT RESTU DCT ALT DCT SUMMO DCT MITOS DCT BRUNO DCT RUXET |
| Aircraft | A320/M-SDE3FGHIRWY/LB1 |
Departure
| Time | 2026-04-26 10:54 |
|---|---|
| Airport | Seville Airport (LEZL) |
Arrival
| Time | 2026-04-26 12:11 |
|---|---|
| Airport | Palma de Mallorca Airport (LEPA) |
| Time | Latitude | Longitude | Altitude | Speed | Heading |
|---|---|---|---|---|---|
| 2026-04-26 10:00 | 37.42280 | -5.89885 | 94 ft | 0 kts | 315° |
| 2026-04-26 10:43 | 37.42273 | -5.89877 | 96 ft | 4 kts | 315° |
| 2026-04-26 10:43 | 37.42254 | -5.89852 | 93 ft | 4 kts | 315° |
| 2026-04-26 10:43 | 37.42238 | -5.89833 | 93 ft | 4 kts | 306° |
| 2026-04-26 10:44 | 37.42232 | -5.89806 | 93 ft | 4 kts | 243° |
| 2026-04-26 10:44 | 37.42248 | -5.89781 | 94 ft | 3 kts | 224° |
| 2026-04-26 10:44 | 37.42268 | -5.89759 | 93 ft | 4 kts | 214° |
| 2026-04-26 10:44 | 37.42291 | -5.89741 | 93 ft | 4 kts | 208° |
| 2026-04-26 10:45 | 37.42307 | -5.89730 | 94 ft | 0 kts | 211° |
| 2026-04-26 10:46 | 37.42282 | -5.89748 | 93 ft | 7 kts | 210° |
| 2026-04-26 10:47 | 37.42248 | -5.89780 | 94 ft | 5 kts | 221° |
| 2026-04-26 10:47 | 37.42222 | -5.89810 | 93 ft | 7 kts | 225° |
| 2026-04-26 10:47 | 37.42165 | -5.89883 | 94 ft | 12 kts | 225° |
| 2026-04-26 10:47 | 37.42107 | -5.89956 | 94 ft | 11 kts | 225° |
| 2026-04-26 10:48 | 37.42059 | -5.90022 | 95 ft | 10 kts | 242° |
| 2026-04-26 10:48 | 37.42038 | -5.90090 | 94 ft | 7 kts | 220° |
| 2026-04-26 10:48 | 37.41983 | -5.90129 | 95 ft | 10 kts | 253° |
| 2026-04-26 10:48 | 37.41980 | -5.90216 | 95 ft | 9 kts | 269° |
| 2026-04-26 10:49 | 37.41979 | -5.90295 | 95 ft | 9 kts | 270° |
| 2026-04-26 10:49 | 37.41979 | -5.90367 | 94 ft | 8 kts | 270° |
| 2026-04-26 10:49 | 37.41979 | -5.90435 | 94 ft | 8 kts | 270° |
| 2026-04-26 10:49 | 37.41979 | -5.90497 | 93 ft | 7 kts | 270° |
| 2026-04-26 10:50 | 37.41979 | -5.90553 | 93 ft | 6 kts | 270° |
| 2026-04-26 10:50 | 37.41979 | -5.90586 | 93 ft | 6 kts | 269° |
| 2026-04-26 10:50 | 37.41978 | -5.90689 | 92 ft | 9 kts | 269° |
| 2026-04-26 10:50 | 37.41978 | -5.90766 | 92 ft | 9 kts | 270° |
| 2026-04-26 10:51 | 37.41978 | -5.90840 | 91 ft | 8 kts | 269° |
| 2026-04-26 10:51 | 37.41977 | -5.90975 | 90 ft | 7 kts | 269° |
| 2026-04-26 10:51 | 37.41976 | -5.91036 | 90 ft | 7 kts | 269° |
| 2026-04-26 10:52 | 37.41976 | -5.91093 | 89 ft | 6 kts | 269° |
| 2026-04-26 10:52 | 37.41976 | -5.91156 | 89 ft | 11 kts | 270° |
| 2026-04-26 10:52 | 37.41963 | -5.91275 | 91 ft | 15 kts | 245° |
| 2026-04-26 10:52 | 37.41885 | -5.91305 | 89 ft | 12 kts | 154° |
| 2026-04-26 10:53 | 37.41835 | -5.91225 | 90 ft | 12 kts | 115° |
| 2026-04-26 10:53 | 37.41791 | -5.91128 | 91 ft | 13 kts | 108° |
| 2026-04-26 10:53 | 37.41790 | -5.91011 | 92 ft | 15 kts | 88° |
| 2026-04-26 10:54 | 37.41801 | -5.89691 | 98 ft | 134 kts | 89° |
| 2026-04-26 10:54 | 37.41807 | -5.88363 | 259 ft | 163 kts | 89° |
| 2026-04-26 10:54 | 37.41786 | -5.86956 | 1018 ft | 160 kts | 89° |
| 2026-04-26 10:54 | 37.41748 | -5.85536 | 1610 ft | 170 kts | 91° |
| 2026-04-26 10:55 | 37.41712 | -5.83945 | 1935 ft | 193 kts | 91° |
| 2026-04-26 10:55 | 37.41692 | -5.82141 | 2300 ft | 219 kts | 85° |
| 2026-04-26 10:55 | 37.42045 | -5.80177 | 2816 ft | 240 kts | 75° |
| 2026-04-26 10:55 | 37.42474 | -5.78110 | 3599 ft | 248 kts | 78° |
| 2026-04-26 10:56 | 37.42809 | -5.75963 | 4486 ft | 252 kts | 89° |
| 2026-04-26 10:56 | 37.42780 | -5.73745 | 5347 ft | 256 kts | 91° |
| 2026-04-26 10:56 | 37.42740 | -5.71485 | 6230 ft | 260 kts | 91° |
| 2026-04-26 10:56 | 37.42709 | -5.69191 | 7052 ft | 264 kts | 92° |
| 2026-04-26 10:57 | 37.42682 | -5.66866 | 7904 ft | 267 kts | 91° |
| 2026-04-26 10:57 | 37.42660 | -5.64520 | 8785 ft | 269 kts | 91° |
| 2026-04-26 10:57 | 37.42639 | -5.62166 | 9680 ft | 270 kts | 91° |
| 2026-04-26 10:57 | 37.42618 | -5.59790 | 10442 ft | 276 kts | 91° |
| 2026-04-26 10:58 | 37.42595 | -5.57279 | 10688 ft | 299 kts | 91° |
| 2026-04-26 10:58 | 37.42572 | -5.54570 | 10995 ft | 318 kts | 91° |
| 2026-04-26 10:58 | 37.42546 | -5.51753 | 11600 ft | 325 kts | 90° |
| 2026-04-26 10:58 | 37.42518 | -5.48882 | 12290 ft | 330 kts | 90° |
| 2026-04-26 10:59 | 37.42489 | -5.45973 | 12983 ft | 335 kts | 90° |
| 2026-04-26 10:59 | 37.42458 | -5.43015 | 13654 ft | 340 kts | 90° |
| 2026-04-26 10:59 | 37.42412 | -5.40019 | 14266 ft | 345 kts | 93° |
| 2026-04-26 10:59 | 37.41953 | -5.37033 | 14843 ft | 352 kts | 107° |
| 2026-04-26 11:00 | 37.40872 | -5.34249 | 15417 ft | 359 kts | 122° |
| 2026-04-26 11:00 | 37.39208 | -5.31876 | 15995 ft | 366 kts | 136° |
| 2026-04-26 11:00 | 37.37293 | -5.29732 | 16564 ft | 371 kts | 137° |
| 2026-04-26 11:00 | 37.35362 | -5.27559 | 17169 ft | 374 kts | 136° |
| 2026-04-26 11:01 | 37.33425 | -5.25370 | 17841 ft | 375 kts | 136° |
| 2026-04-26 11:01 | 37.31477 | -5.23166 | 18446 ft | 378 kts | 136° |
| 2026-04-26 11:01 | 37.29511 | -5.20941 | 18933 ft | 383 kts | 136° |
| 2026-04-26 11:01 | 37.27524 | -5.18693 | 19448 ft | 386 kts | 137° |
| 2026-04-26 11:02 | 37.25515 | -5.16425 | 19930 ft | 391 kts | 137° |
| 2026-04-26 11:02 | 37.23483 | -5.14134 | 20441 ft | 394 kts | 136° |
| 2026-04-26 11:02 | 37.21434 | -5.11826 | 20964 ft | 398 kts | 137° |
| 2026-04-26 11:02 | 37.19394 | -5.09529 | 21463 ft | 401 kts | 137° |
| 2026-04-26 11:03 | 37.17305 | -5.07183 | 21966 ft | 405 kts | 137° |
| 2026-04-26 11:03 | 37.15194 | -5.04817 | 22454 ft | 409 kts | 137° |
| 2026-04-26 11:03 | 37.13063 | -5.02432 | 22941 ft | 412 kts | 137° |
| 2026-04-26 11:03 | 37.10918 | -5.00031 | 23418 ft | 415 kts | 137° |
| 2026-04-26 11:04 | 37.08758 | -4.97614 | 23853 ft | 418 kts | 137° |
| 2026-04-26 11:04 | 37.06637 | -4.95100 | 24232 ft | 421 kts | 131° |
| 2026-04-26 11:04 | 37.04847 | -4.92192 | 24595 ft | 423 kts | 121° |
| 2026-04-26 11:04 | 37.03424 | -4.88965 | 24973 ft | 425 kts | 116° |
| 2026-04-26 11:05 | 37.02037 | -4.85635 | 25353 ft | 427 kts | 116° |
| 2026-04-26 11:05 | 37.00652 | -4.82338 | 25718 ft | 429 kts | 117° |
| 2026-04-26 11:05 | 36.99256 | -4.79032 | 26085 ft | 431 kts | 117° |
| 2026-04-26 11:05 | 36.97872 | -4.75749 | 26433 ft | 433 kts | 116° |
| 2026-04-26 11:06 | 36.96465 | -4.72409 | 26796 ft | 435 kts | 116° |
| 2026-04-26 11:06 | 36.95508 | -4.70141 | 27033 ft | 437 kts | 117° |
| 2026-04-26 11:06 | 36.93623 | -4.65679 | 27496 ft | 440 kts | 117° |
| 2026-04-26 11:06 | 36.92192 | -4.62297 | 27838 ft | 442 kts | 116° |
| 2026-04-26 11:07 | 36.90750 | -4.58894 | 28164 ft | 444 kts | 117° |
| 2026-04-26 11:07 | 36.89302 | -4.55481 | 28507 ft | 445 kts | 116° |
| 2026-04-26 11:07 | 36.87846 | -4.52059 | 28849 ft | 447 kts | 116° |
| 2026-04-26 11:07 | 36.86385 | -4.48628 | 29157 ft | 448 kts | 116° |
| 2026-04-26 11:08 | 36.84992 | -4.45143 | 29446 ft | 449 kts | 110° |
| 2026-04-26 11:08 | 36.84052 | -4.41434 | 29729 ft | 448 kts | 100° |
| 2026-04-26 11:08 | 36.83659 | -4.37584 | 30018 ft | 448 kts | 90° |
| 2026-04-26 11:08 | 36.83818 | -4.33710 | 30261 ft | 447 kts | 80° |
| 2026-04-26 11:09 | 36.84518 | -4.29934 | 30468 ft | 447 kts | 70° |
| 2026-04-26 11:09 | 36.85730 | -4.26360 | 30668 ft | 448 kts | 62° |
| 2026-04-26 11:09 | 36.87140 | -4.22884 | 30850 ft | 450 kts | 62° |
| 2026-04-26 11:09 | 36.88554 | -4.19396 | 31109 ft | 450 kts | 62° |
| 2026-04-26 11:10 | 36.89964 | -4.15911 | 31381 ft | 450 kts | 62° |
| 2026-04-26 11:10 | 36.91371 | -4.12425 | 31642 ft | 449 kts | 62° |
| 2026-04-26 11:10 | 36.92776 | -4.08937 | 31914 ft | 449 kts | 62° |
| 2026-04-26 11:10 | 36.94176 | -4.05454 | 32220 ft | 448 kts | 62° |
| 2026-04-26 11:11 | 36.95573 | -4.01974 | 32518 ft | 448 kts | 62° |
| 2026-04-26 11:11 | 36.96970 | -3.98498 | 32791 ft | 447 kts | 62° |
| 2026-04-26 11:11 | 36.98368 | -3.95024 | 33070 ft | 447 kts | 62° |
| 2026-04-26 11:11 | 36.99767 | -3.91548 | 33337 ft | 447 kts | 62° |
| 2026-04-26 11:12 | 37.01161 | -3.88076 | 33619 ft | 447 kts | 62° |
| 2026-04-26 11:12 | 37.02553 | -3.84602 | 33889 ft | 447 kts | 62° |
| 2026-04-26 11:12 | 37.03941 | -3.81129 | 34177 ft | 446 kts | 63° |
| 2026-04-26 11:12 | 37.05320 | -3.77663 | 34475 ft | 444 kts | 63° |
| 2026-04-26 11:13 | 37.06695 | -3.74205 | 34728 ft | 444 kts | 63° |
| 2026-04-26 11:13 | 37.08069 | -3.70746 | 34935 ft | 444 kts | 63° |
| 2026-04-26 11:13 | 37.09445 | -3.67284 | 35132 ft | 445 kts | 63° |
| 2026-04-26 11:13 | 37.10824 | -3.63812 | 35327 ft | 445 kts | 63° |
| 2026-04-26 11:14 | 37.12203 | -3.60336 | 35507 ft | 446 kts | 63° |
| 2026-04-26 11:14 | 37.13582 | -3.56856 | 35694 ft | 446 kts | 63° |
| 2026-04-26 11:14 | 37.14963 | -3.53367 | 35862 ft | 447 kts | 63° |
| 2026-04-26 11:14 | 37.15879 | -3.51054 | 35983 ft | 447 kts | 63° |
| 2026-04-26 11:15 | 37.17730 | -3.46374 | 36123 ft | 448 kts | 63° |
| 2026-04-26 11:15 | 37.19113 | -3.42877 | 36135 ft | 447 kts | 62° |
| 2026-04-26 11:15 | 37.21864 | -3.35915 | 36127 ft | 444 kts | 62° |
| 2026-04-26 11:16 | 37.24584 | -3.29008 | 36130 ft | 444 kts | 62° |
| 2026-04-26 11:16 | 37.27311 | -3.22052 | 36126 ft | 444 kts | 62° |
| 2026-04-26 11:17 | 37.30029 | -3.15084 | 36124 ft | 444 kts | 62° |
| 2026-04-26 11:17 | 37.32739 | -3.08114 | 36120 ft | 444 kts | 62° |
| 2026-04-26 11:18 | 37.35454 | -3.01146 | 36135 ft | 444 kts | 63° |
| 2026-04-26 11:18 | 37.38171 | -2.94183 | 36130 ft | 443 kts | 62° |
| 2026-04-26 11:19 | 37.40873 | -2.87211 | 36126 ft | 443 kts | 62° |
| 2026-04-26 11:19 | 37.43574 | -2.80244 | 36122 ft | 443 kts | 62° |
| 2026-04-26 11:20 | 37.45817 | -2.74454 | 36139 ft | 442 kts | 62° |
| 2026-04-26 11:20 | 37.48951 | -2.66313 | 36153 ft | 442 kts | 62° |
| 2026-04-26 11:21 | 37.51628 | -2.59350 | 36154 ft | 441 kts | 62° |
| 2026-04-26 11:21 | 37.54292 | -2.52384 | 36143 ft | 441 kts | 63° |
| 2026-04-26 11:22 | 37.56954 | -2.45413 | 36142 ft | 441 kts | 63° |
| 2026-04-26 11:22 | 37.59618 | -2.38449 | 36146 ft | 441 kts | 63° |
| 2026-04-26 11:23 | 37.62261 | -2.31521 | 36143 ft | 441 kts | 63° |
| 2026-04-26 11:23 | 37.64915 | -2.24540 | 36158 ft | 441 kts | 63° |
| 2026-04-26 11:24 | 37.67566 | -2.17560 | 36156 ft | 441 kts | 63° |
| 2026-04-26 11:24 | 37.70211 | -2.10574 | 36160 ft | 441 kts | 63° |
| 2026-04-26 11:25 | 37.72402 | -2.04770 | 36165 ft | 440 kts | 63° |
| 2026-04-26 11:25 | 37.75033 | -1.97794 | 36170 ft | 439 kts | 64° |
| 2026-04-26 11:26 | 37.77660 | -1.90820 | 36175 ft | 439 kts | 63° |
| 2026-04-26 11:26 | 37.80275 | -1.83854 | 36172 ft | 438 kts | 63° |
| 2026-04-26 11:27 | 37.82881 | -1.76884 | 36168 ft | 438 kts | 64° |
| 2026-04-26 11:27 | 37.85488 | -1.69916 | 36163 ft | 438 kts | 63° |
| 2026-04-26 11:28 | 37.88092 | -1.62945 | 36164 ft | 438 kts | 63° |
| 2026-04-26 11:28 | 37.90688 | -1.55966 | 36163 ft | 438 kts | 64° |
| 2026-04-26 11:29 | 37.93274 | -1.48980 | 36175 ft | 438 kts | 64° |
| 2026-04-26 11:29 | 37.95852 | -1.42000 | 36172 ft | 437 kts | 64° |
| 2026-04-26 11:30 | 37.97992 | -1.36202 | 36174 ft | 437 kts | 64° |
| 2026-04-26 11:30 | 38.00995 | -1.28058 | 36175 ft | 436 kts | 64° |
| 2026-04-26 11:31 | 38.03559 | -1.21088 | 36169 ft | 436 kts | 64° |
| 2026-04-26 11:31 | 38.06116 | -1.14113 | 36176 ft | 436 kts | 65° |
| 2026-04-26 11:32 | 38.08669 | -1.07139 | 36178 ft | 435 kts | 65° |
| 2026-04-26 11:32 | 38.11208 | -1.00170 | 36177 ft | 435 kts | 65° |
| 2026-04-26 11:33 | 38.13724 | -0.93249 | 36167 ft | 434 kts | 65° |
| 2026-04-26 11:33 | 38.16257 | -0.86282 | 36164 ft | 434 kts | 65° |
| 2026-04-26 11:34 | 38.18787 | -0.79311 | 36164 ft | 434 kts | 65° |
| 2026-04-26 11:34 | 38.21306 | -0.72338 | 36162 ft | 434 kts | 66° |
| 2026-04-26 11:35 | 38.23826 | -0.65361 | 36162 ft | 434 kts | 66° |
| 2026-04-26 11:35 | 38.26342 | -0.58377 | 36165 ft | 434 kts | 66° |
| 2026-04-26 11:36 | 38.28749 | -0.51341 | 36165 ft | 434 kts | 68° |
| 2026-04-26 11:36 | 38.30983 | -0.44207 | 36162 ft | 434 kts | 69° |
| 2026-04-26 11:37 | 38.33205 | -0.37072 | 36158 ft | 434 kts | 69° |
| 2026-04-26 11:37 | 38.35455 | -0.29943 | 36167 ft | 434 kts | 69° |
| 2026-04-26 11:38 | 38.37759 | -0.22838 | 36160 ft | 434 kts | 68° |
| 2026-04-26 11:38 | 38.40138 | -0.15768 | 36165 ft | 434 kts | 67° |
| 2026-04-26 11:39 | 38.42522 | -0.08701 | 36171 ft | 434 kts | 68° |
| 2026-04-26 11:39 | 38.44881 | -0.01613 | 36165 ft | 434 kts | 68° |
| 2026-04-26 11:40 | 38.47194 | 0.05498 | 36168 ft | 434 kts | 69° |
| 2026-04-26 11:40 | 38.49475 | 0.12645 | 36164 ft | 435 kts | 69° |
| 2026-04-26 11:42 | 38.58584 | 0.41229 | 36167 ft | 436 kts | 69° |
| 2026-04-26 11:43 | 38.60866 | 0.48422 | 36154 ft | 437 kts | 69° |
| 2026-04-26 11:43 | 38.63149 | 0.55639 | 36155 ft | 438 kts | 69° |
| 2026-04-26 11:44 | 38.65431 | 0.62872 | 36160 ft | 439 kts | 69° |
| 2026-04-26 11:44 | 38.67207 | 0.70313 | 36156 ft | 438 kts | 82° |
| 2026-04-26 11:45 | 38.68062 | 0.78030 | 36152 ft | 438 kts | 83° |
| 2026-04-26 11:45 | 38.68920 | 0.85763 | 36151 ft | 439 kts | 83° |
| 2026-04-26 11:46 | 38.69770 | 0.93518 | 36159 ft | 440 kts | 83° |
| 2026-04-26 11:46 | 38.70618 | 1.01283 | 36157 ft | 441 kts | 83° |
| 2026-04-26 11:47 | 38.71472 | 1.09063 | 36107 ft | 440 kts | 83° |
| 2026-04-26 11:47 | 38.71891 | 1.12941 | 35490 ft | 440 kts | 83° |
| 2026-04-26 11:47 | 38.72311 | 1.16827 | 34759 ft | 441 kts | 83° |
| 2026-04-26 11:48 | 38.72729 | 1.20722 | 33979 ft | 442 kts | 84° |
| 2026-04-26 11:48 | 38.73146 | 1.24629 | 33126 ft | 444 kts | 84° |
| 2026-04-26 11:48 | 38.73558 | 1.28480 | 32505 ft | 440 kts | 83° |
| 2026-04-26 11:48 | 38.73970 | 1.32347 | 31918 ft | 436 kts | 83° |
| 2026-04-26 11:49 | 38.74375 | 1.36179 | 31345 ft | 432 kts | 83° |
| 2026-04-26 11:49 | 38.74775 | 1.39980 | 30789 ft | 429 kts | 83° |
| 2026-04-26 11:49 | 38.75171 | 1.43748 | 30254 ft | 425 kts | 83° |
| 2026-04-26 11:49 | 38.75558 | 1.47483 | 29653 ft | 421 kts | 84° |
| 2026-04-26 11:50 | 38.75944 | 1.51188 | 29080 ft | 417 kts | 83° |
| 2026-04-26 11:50 | 38.76328 | 1.54853 | 28502 ft | 413 kts | 83° |
| 2026-04-26 11:50 | 38.76706 | 1.58487 | 27939 ft | 410 kts | 83° |
| 2026-04-26 11:50 | 38.77082 | 1.62089 | 27408 ft | 406 kts | 83° |
| 2026-04-26 11:51 | 38.77452 | 1.65654 | 26882 ft | 402 kts | 83° |
| 2026-04-26 11:51 | 38.77819 | 1.69189 | 26385 ft | 398 kts | 83° |
| 2026-04-26 11:51 | 38.78181 | 1.72692 | 25887 ft | 395 kts | 83° |
| 2026-04-26 11:51 | 38.78537 | 1.76168 | 25403 ft | 392 kts | 83° |
| 2026-04-26 11:52 | 38.78896 | 1.79657 | 24934 ft | 388 kts | 84° |
| 2026-04-26 11:52 | 38.79129 | 1.81924 | 24632 ft | 386 kts | 84° |
| 2026-04-26 11:52 | 38.79588 | 1.86414 | 24045 ft | 382 kts | 84° |
| 2026-04-26 11:52 | 38.80089 | 1.89739 | 23584 ft | 379 kts | 76° |
| 2026-04-26 11:53 | 38.81000 | 1.92907 | 23042 ft | 379 kts | 66° |
| 2026-04-26 11:53 | 38.82310 | 1.95833 | 22525 ft | 379 kts | 57° |
| 2026-04-26 11:53 | 38.83902 | 1.98513 | 22042 ft | 377 kts | 54° |
| 2026-04-26 11:54 | 38.87097 | 2.03772 | 21118 ft | 371 kts | 54° |
| 2026-04-26 11:54 | 38.88676 | 2.06374 | 20637 ft | 368 kts | 54° |
| 2026-04-26 11:54 | 38.90242 | 2.08967 | 20148 ft | 367 kts | 54° |
| 2026-04-26 11:54 | 38.91799 | 2.11551 | 19662 ft | 365 kts | 54° |
| 2026-04-26 11:55 | 38.93348 | 2.14125 | 19196 ft | 363 kts | 54° |
| 2026-04-26 11:55 | 38.94891 | 2.16687 | 18730 ft | 362 kts | 54° |
| 2026-04-26 11:55 | 38.96427 | 2.19237 | 18239 ft | 360 kts | 54° |
| 2026-04-26 11:55 | 38.97956 | 2.21777 | 17710 ft | 359 kts | 54° |
| 2026-04-26 11:56 | 38.99479 | 2.24310 | 17190 ft | 357 kts | 54° |
| 2026-04-26 11:56 | 39.00994 | 2.26834 | 16676 ft | 356 kts | 54° |
| 2026-04-26 11:56 | 39.02504 | 2.29349 | 16168 ft | 355 kts | 54° |
| 2026-04-26 11:56 | 39.04011 | 2.31860 | 15673 ft | 354 kts | 54° |
| 2026-04-26 11:57 | 39.05513 | 2.34362 | 15193 ft | 353 kts | 54° |
| 2026-04-26 11:57 | 39.07010 | 2.36861 | 14708 ft | 352 kts | 54° |
| 2026-04-26 11:57 | 39.08501 | 2.39351 | 14237 ft | 351 kts | 53° |
| 2026-04-26 11:57 | 39.09988 | 2.41832 | 13740 ft | 349 kts | 53° |
| 2026-04-26 11:58 | 39.11466 | 2.44304 | 13216 ft | 348 kts | 53° |
| 2026-04-26 11:58 | 39.12938 | 2.46764 | 12696 ft | 346 kts | 53° |
| 2026-04-26 11:58 | 39.14399 | 2.49202 | 12189 ft | 342 kts | 53° |
| 2026-04-26 11:58 | 39.15943 | 2.51517 | 11686 ft | 341 kts | 44° |
| 2026-04-26 11:59 | 39.17817 | 2.53373 | 11197 ft | 339 kts | 35° |
| 2026-04-26 11:59 | 39.19767 | 2.55067 | 10714 ft | 337 kts | 35° |
| 2026-04-26 11:59 | 39.21703 | 2.56746 | 10233 ft | 334 kts | 35° |
| 2026-04-26 11:59 | 39.23625 | 2.58417 | 9729 ft | 332 kts | 35° |
| 2026-04-26 12:00 | 39.25528 | 2.60076 | 9320 ft | 326 kts | 35° |
| 2026-04-26 12:00 | 39.27365 | 2.61678 | 9190 ft | 312 kts | 36° |
| 2026-04-26 12:00 | 39.29123 | 2.63214 | 9050 ft | 299 kts | 36° |
| 2026-04-26 12:00 | 39.30811 | 2.64690 | 8928 ft | 287 kts | 36° |
| 2026-04-26 12:01 | 39.32446 | 2.66121 | 8621 ft | 282 kts | 36° |
| 2026-04-26 12:01 | 39.34062 | 2.67537 | 8246 ft | 280 kts | 35° |
| 2026-04-26 12:01 | 39.35666 | 2.68941 | 7881 ft | 277 kts | 36° |
| 2026-04-26 12:01 | 39.37234 | 2.70312 | 7505 ft | 275 kts | 36° |
| 2026-04-26 12:02 | 39.38814 | 2.71695 | 7135 ft | 273 kts | 36° |
| 2026-04-26 12:02 | 39.39875 | 2.72625 | 6879 ft | 272 kts | 36° |
| 2026-04-26 12:02 | 39.41942 | 2.74439 | 6355 ft | 270 kts | 37° |
| 2026-04-26 12:02 | 39.43332 | 2.76033 | 5941 ft | 266 kts | 50° |
| 2026-04-26 12:03 | 39.44376 | 2.77986 | 5543 ft | 263 kts | 64° |
| 2026-04-26 12:03 | 39.45193 | 2.80091 | 5128 ft | 261 kts | 64° |
| 2026-04-26 12:03 | 39.46015 | 2.82183 | 4718 ft | 260 kts | 64° |
| 2026-04-26 12:03 | 39.46836 | 2.84256 | 4311 ft | 258 kts | 64° |
| 2026-04-26 12:04 | 39.47646 | 2.86300 | 4036 ft | 252 kts | 64° |
| 2026-04-26 12:04 | 39.48429 | 2.88286 | 3786 ft | 244 kts | 64° |
| 2026-04-26 12:04 | 39.49187 | 2.90215 | 3553 ft | 237 kts | 64° |
| 2026-04-26 12:04 | 39.49922 | 2.92090 | 3302 ft | 230 kts | 64° |
| 2026-04-26 12:05 | 39.50640 | 2.93916 | 3083 ft | 224 kts | 64° |
| 2026-04-26 12:05 | 39.51347 | 2.95708 | 3021 ft | 223 kts | 64° |
| 2026-04-26 12:05 | 39.52050 | 2.97499 | 3021 ft | 224 kts | 64° |
| 2026-04-26 12:05 | 39.52840 | 2.99232 | 3023 ft | 225 kts | 48° |
| 2026-04-26 12:06 | 39.54162 | 3.00287 | 2952 ft | 227 kts | 15° |
| 2026-04-26 12:06 | 39.55715 | 3.00363 | 2801 ft | 221 kts | 354° |
| 2026-04-26 12:06 | 39.57150 | 2.99786 | 2672 ft | 213 kts | 335° |
| 2026-04-26 12:06 | 39.58438 | 2.98917 | 2568 ft | 205 kts | 329° |
| 2026-04-26 12:07 | 39.59653 | 2.97966 | 2528 ft | 202 kts | 326° |
| 2026-04-26 12:07 | 39.60556 | 2.96608 | 2526 ft | 201 kts | 292° |
| 2026-04-26 12:07 | 39.60984 | 2.94906 | 2529 ft | 201 kts | 283° |
| 2026-04-26 12:07 | 39.61322 | 2.93122 | 2563 ft | 201 kts | 282° |
| 2026-04-26 12:08 | 39.61638 | 2.91366 | 2516 ft | 203 kts | 280° |
| 2026-04-26 12:08 | 39.61626 | 2.89556 | 2304 ft | 200 kts | 256° |
| 2026-04-26 12:08 | 39.61088 | 2.87937 | 2074 ft | 193 kts | 236° |
| 2026-04-26 12:08 | 39.60395 | 2.86471 | 1835 ft | 189 kts | 236° |
| 2026-04-26 12:09 | 39.59717 | 2.85029 | 1582 ft | 186 kts | 237° |
| 2026-04-26 12:09 | 39.59063 | 2.83638 | 1365 ft | 170 kts | 236° |
| 2026-04-26 12:09 | 39.58481 | 2.82401 | 1143 ft | 152 kts | 236° |
| 2026-04-26 12:09 | 39.57952 | 2.81277 | 959 ft | 141 kts | 234° |
| 2026-04-26 12:10 | 39.57451 | 2.80216 | 744 ft | 134 kts | 237° |
| 2026-04-26 12:10 | 39.56965 | 2.79187 | 591 ft | 134 kts | 236° |
| 2026-04-26 12:10 | 39.56481 | 2.78164 | 422 ft | 131 kts | 237° |
| 2026-04-26 12:10 | 39.55997 | 2.77162 | 240 ft | 134 kts | 238° |
| 2026-04-26 12:11 | 39.55515 | 2.76106 | 106 ft | 139 kts | 237° |
| 2026-04-26 12:11 | 39.55047 | 2.75095 | 31 ft | 112 kts | 233° |
| 2026-04-26 12:11 | 39.54729 | 2.74441 | 30 ft | 61 kts | 238° |
| 2026-04-26 12:11 | 39.54580 | 2.74105 | 30 ft | 32 kts | 250° |
| 2026-04-26 12:12 | 39.54551 | 2.73837 | 30 ft | 29 kts | 273° |
| 2026-04-26 12:12 | 39.54559 | 2.73717 | 30 ft | 11 kts | 275° |
| 2026-04-26 12:12 | 39.54603 | 2.73634 | 30 ft | 12 kts | 334° |
| 2026-04-26 12:12 | 39.54629 | 2.73621 | 30 ft | 11 kts | 342° |
| 2026-04-26 12:13 | 39.54705 | 2.73580 | 30 ft | 7 kts | 326° |
| 2026-04-26 12:13 | 39.54732 | 2.73582 | 30 ft | 3 kts | 54° |
| 2026-04-26 12:13 | 39.54739 | 2.73602 | 30 ft | 2 kts | 66° |
| 2026-04-26 12:13 | 39.54745 | 2.73615 | 30 ft | 1 kts | 60° |
| 2026-04-26 12:14 | 39.54747 | 2.73620 | 30 ft | 0 kts | 59° |
| 2026-04-26 12:14 | 39.54756 | 2.73640 | 30 ft | 3 kts | 58° |
| 2026-04-26 12:14 | 39.54757 | 2.73641 | 30 ft | 0 kts | 58° |